Time;durP1;ratioP1;P1;durP2;ratioP2;P2;SDS_P1;SDS_P2;PMS_P1;PMS_P2;Temp;Humidity;BMP_temperature;BMP_pressure;BME280_temperature;BME280_humidity;BME280_pressure;Samples;Min_cycle;Max_cycle;Signal;HPM_P1;HPM_P2
2023/08/18 00:00:10;;;;;;;0.50;0.20;;;;;;;22.27;100.00;99877.69;4994864;28;21069;-57
2023/08/18 00:02:40;;;;;;;0.60;0.30;;;;;;;22.46;100.00;99892.34;5006631;28;20127;-56
2023/08/18 00:05:11;;;;;;;1.77;0.30;;;;;;;22.63;100.00;99894.63;5015403;28;20166;-55
2023/08/18 00:07:43;;;;;;;0.40;0.27;;;;;;;22.70;100.00;99906.56;5024089;28;20048;-54
2023/08/18 00:10:13;;;;;;;2.57;0.30;;;;;;;22.70;100.00;99906.56;5001605;28;20051;-53
2023/08/18 00:12:44;;;;;;;1.13;0.40;;;;;;;22.48;100.00;99885.09;5009244;28;20045;-50
2023/08/18 00:15:14;;;;;;;1.03;0.30;;;;;;;22.56;100.00;99904.03;5014819;28;20072;-55
2023/08/18 00:17:45;;;;;;;1.70;0.60;;;;;;;22.57;100.00;99905.75;5020216;28;20057;-53
2023/08/18 00:20:16;;;;;;;1.07;0.50;;;;;;;22.53;100.00;99914.91;5002022;28;20400;-55
2023/08/18 00:22:48;;;;;;;0.77;0.30;;;;;;;22.54;100.00;99921.91;5005279;28;20385;-54
2023/08/18 00:25:18;;;;;;;0.67;0.30;;;;;;;22.52;100.00;99923.88;4998407;28;20047;-56
2023/08/18 00:27:49;;;;;;;0.70;0.30;;;;;;;22.56;100.00;99928.84;5005187;28;20041;-50
2023/08/18 00:30:24;;;;;;;0.20;0.20;;;;;;;22.71;100.00;99932.22;4997309;28;20038;-57
2023/08/18 00:32:54;;;;;;;1.50;0.20;;;;;;;22.78;100.00;99914.81;5050641;28;20047;-57
2023/08/18 00:35:25;;;;;;;4.13;0.40;;;;;;;23.01;100.00;99933.63;5053128;28;20037;-57
2023/08/18 00:37:57;;;;;;;0.80;0.30;;;;;;;23.13;100.00;99930.06;5057067;28;20508;-55
2023/08/18 00:40:27;;;;;;;2.20;0.60;;;;;;;23.20;100.00;99926.00;5057986;28;20160;-57
2023/08/18 00:42:58;;;;;;;1.57;0.40;;;;;;;23.37;100.00;99926.56;5032510;28;20049;-53
2023/08/18 00:45:31;;;;;;;1.00;0.30;;;;;;;23.46;100.00;99925.84;5028195;28;20443;-53
2023/08/18 00:48:02;;;;;;;0.77;0.30;;;;;;;23.59;100.00;99937.31;5018582;28;20071;-57
2023/08/18 00:50:32;;;;;;;1.53;0.40;;;;;;;23.61;100.00;99940.72;5028267;28;20106;-57
2023/08/18 00:53:05;;;;;;;2.00;0.40;;;;;;;23.59;100.00;99939.97;5020529;28;20045;-56
2023/08/18 00:55:36;;;;;;;0.30;0.30;;;;;;;23.64;100.00;99940.47;5036763;28;20124;-57
2023/08/18 00:58:08;;;;;;;2.23;0.40;;;;;;;23.73;100.00;99943.44;5045640;28;20136;-57
2023/08/18 01:00:40;;;;;;;0.40;0.30;;;;;;;23.80;100.00;99950.84;5036206;28;20037;-58
2023/08/18 01:03:11;;;;;;;1.33;0.33;;;;;;;23.76;99.87;99949.38;5026725;28;20102;-57
2023/08/18 01:05:42;;;;;;;0.87;0.30;;;;;;;23.71;99.09;99950.66;5035222;28;20056;-56
2023/08/18 01:08:14;;;;;;;1.50;0.50;;;;;;;23.74;100.00;99946.00;5025147;28;20125;-58
2023/08/18 01:10:53;;;;;;;1.57;0.37;;;;;;;23.84;98.97;99948.81;5035858;28;20045;-57
2023/08/18 01:13:28;;;;;;;;;;;;;;;23.81;99.04;99952.56;5026644;28;20063;-56
2023/08/18 01:15:58;;;;;;;3.90;0.40;;;;;;;;;;5027173;28;19959;-57
2023/08/18 01:18:32;;;;;;;8.80;1.10;;;;;;;23.90;100.00;99956.31;5036645;28;20048;-57
2023/08/18 01:21:05;;;;;;;0.30;0.30;;;;;;;23.91;98.52;99952.69;5022553;28;20546;-54
2023/08/18 01:23:41;;;;;;;2.37;0.50;;;;;;;23.90;98.76;99946.50;5027594;28;20503;-55
2023/08/18 01:26:12;;;;;;;0.70;0.50;;;;;;;24.09;98.49;99972.63;5003786;28;20472;-54
2023/08/18 01:28:43;;;;;;;2.47;0.40;;;;;;;24.16;98.00;99967.63;5008133;28;20376;-56
2023/08/18 01:31:17;;;;;;;1.80;0.60;;;;;;;24.14;98.02;99936.69;4997918;28;20042;-56
2023/08/18 01:33:53;;;;;;;23.07;2.33;;;;;;;24.47;97.91;99982.16;5012925;28;20499;-54
2023/08/18 01:36:25;;;;;;;0.87;0.40;;;;;;;24.39;96.13;99979.22;5017678;28;20045;-56
2023/08/18 01:38:59;;;;;;;3.90;0.60;;;;;;;24.30;94.58;99969.25;5017399;28;20341;-53
2023/08/18 01:41:31;;;;;;;3.37;0.50;;;;;;;24.40;92.74;99985.41;5027150;28;20079;-55
2023/08/18 01:44:02;;;;;;;1.97;0.60;;;;;;;24.42;91.60;99989.66;5017279;28;20064;-56
2023/08/18 01:46:32;;;;;;;1.63;0.30;;;;;;;24.46;91.70;99990.28;5027867;28;20040;-56
2023/08/18 01:49:03;;;;;;;1.90;0.40;;;;;;;24.45;89.46;99989.44;5016992;28;20044;-56
2023/08/18 01:51:33;;;;;;;0.67;0.30;;;;;;;24.54;89.51;99994.06;5026844;28;20525;-55
2023/08/18 01:54:06;;;;;;;0.90;0.47;;;;;;;24.71;88.66;99989.19;5007826;28;20091;-56
2023/08/18 01:56:36;;;;;;;1.47;0.30;;;;;;;24.81;88.45;100000.88;5021807;28;20067;-56
2023/08/18 01:59:07;;;;;;;1.10;0.40;;;;;;;24.81;88.13;99995.53;5017837;28;20512;-58
2023/08/18 02:01:37;;;;;;;2.13;0.40;;;;;;;24.89;88.92;99998.41;5027468;28;20098;-53
2023/08/18 02:04:08;;;;;;;1.07;0.20;;;;;;;24.97;88.07;99990.63;5017751;28;20061;-57
2023/08/18 02:06:38;;;;;;;2.63;0.37;;;;;;;24.95;87.24;99997.06;5023475;28;20053;-57
2023/08/18 02:09:10;;;;;;;0.60;0.40;;;;;;;24.92;84.40;100006.19;4997512;28;20057;-55
2023/08/18 02:11:41;;;;;;;0.97;0.30;;;;;;;24.78;85.09;99969.03;5007154;28;20065;-56
2023/08/18 02:14:11;;;;;;;2.40;0.50;;;;;;;25.05;86.23;100002.53;4998013;28;20045;-56
2023/08/18 02:16:43;;;;;;;2.23;0.40;;;;;;;25.10;86.73;100000.31;5007734;28;20073;-55
2023/08/18 02:19:14;;;;;;;0.90;0.30;;;;;;;25.24;88.11;100002.75;4996776;28;20396;-56
2023/08/18 02:21:44;;;;;;;0.87;0.40;;;;;;;25.38;87.94;100010.47;5006468;28;20042;-56
2023/08/18 02:24:16;;;;;;;0.63;0.30;;;;;;;25.46;83.58;100012.53;4994743;28;20049;-57
2023/08/18 02:26:47;;;;;;;1.27;0.30;;;;;;;25.59;84.99;100007.88;5021527;28;20464;-59
2023/08/18 02:29:18;;;;;;;1.93;0.80;;;;;;;25.83;86.92;100015.69;4992855;28;20049;-57
2023/08/18 02:31:49;;;;;;;1.17;0.60;;;;;;;25.92;84.82;100023.94;5003216;28;20057;-58
2023/08/18 02:34:20;;;;;;;1.50;0.43;;;;;;;25.92;86.55;100013.22;4996360;28;20412;-57
2023/08/18 02:36:51;;;;;;;2.63;0.50;;;;;;;25.85;86.86;99996.81;5023350;28;20051;-58
2023/08/18 02:39:23;;;;;;;1.03;0.40;;;;;;;26.02;86.40;100019.50;4992060;28;20372;-59
2023/08/18 02:41:54;;;;;;;2.37;0.30;;;;;;;26.01;82.81;100023.16;4998017;28;20045;-56
2023/08/18 02:44:25;;;;;;;1.20;0.40;;;;;;;26.09;84.83;100025.19;5014558;28;20060;-58
2023/08/18 02:46:56;;;;;;;1.27;0.40;;;;;;;26.07;83.57;100027.97;5013204;28;20135;-59
2023/08/18 02:49:26;;;;;;;0.50;0.30;;;;;;;26.11;85.65;100034.78;5022650;28;20033;-58
2023/08/18 02:51:57;;;;;;;2.13;0.40;;;;;;;26.11;85.65;100037.47;5012578;28;20106;-59
2023/08/18 02:54:29;;;;;;;0.90;0.30;;;;;;;26.15;84.64;100040.72;5022144;28;20543;-58
2023/08/18 02:57:00;;;;;;;0.60;0.40;;;;;;;26.06;81.16;100047.72;5012535;28;20053;-57
2023/08/18 02:59:32;;;;;;;0.63;0.30;;;;;;;26.10;83.11;100033.06;5021418;28;20073;-58
2023/08/18 03:02:02;;;;;;;3.87;0.50;;;;;;;26.22;84.71;100033.88;4991337;28;20063;-58
2023/08/18 03:04:33;;;;;;;0.60;0.37;;;;;;;26.17;83.40;100036.94;5003251;28;20628;-59
2023/08/18 03:07:03;;;;;;;0.40;0.40;;;;;;;26.24;83.36;100035.44;4992739;28;20483;-59
2023/08/18 03:09:36;;;;;;;2.00;0.30;;;;;;;26.22;80.99;100037.38;5001968;28;20076;-58
2023/08/18 03:12:07;;;;;;;0.60;0.40;;;;;;;26.19;82.84;100037.66;4992249;28;20435;-59
2023/08/18 03:14:37;;;;;;;2.73;0.50;;;;;;;26.22;83.58;100040.06;5002635;28;20456;-58
2023/08/18 03:17:08;;;;;;;1.37;0.40;;;;;;;26.08;84.80;100029.66;4993143;28;20054;-58
2023/08/18 03:19:39;;;;;;;0.90;0.37;;;;;;;26.02;85.97;100040.91;5002900;28;20068;-58
2023/08/18 03:22:09;;;;;;;2.20;0.40;;;;;;;26.03;87.43;100053.31;4992325;28;21101;-57
2023/08/18 03:24:41;;;;;;;4.80;0.50;;;;;;;25.87;86.68;100044.88;5001983;28;20466;-58
2023/08/18 03:27:12;;;;;;;0.57;0.27;;;;;;;25.70;88.50;100049.78;4995172;28;20445;-59
2023/08/18 03:29:42;;;;;;;3.93;0.60;;;;;;;25.53;89.02;100044.97;5021096;28;20044;-59
2023/08/18 03:32:13;;;;;;;0.37;0.33;;;;;;;25.36;89.73;100028.50;5027201;28;20059;-60
2023/08/18 03:34:43;;;;;;;1.43;1.00;;;;;;;25.46;91.57;100038.41;5034708;28;20456;-59
2023/08/18 03:37:13;;;;;;;2.13;0.50;;;;;;;25.54;93.52;100046.69;5033633;28;20049;-60
2023/08/18 03:39:46;;;;;;;2.87;0.40;;;;;;;25.55;92.49;100046.53;5033116;28;20056;-60
2023/08/18 03:42:16;;;;;;;3.50;0.40;;;;;;;25.57;92.74;100046.44;5033934;28;20057;-60
2023/08/18 03:44:47;;;;;;;1.93;0.40;;;;;;;25.55;93.38;100046.53;5033306;28;20055;-59
2023/08/18 03:47:17;;;;;;;3.43;0.50;;;;;;;25.53;95.08;100045.81;5033234;28;20121;-59
2023/08/18 03:49:48;;;;;;;1.57;0.50;;;;;;;24.94;94.88;99969.50;5032601;28;20111;-59
2023/08/18 03:52:18;;;;;;;2.67;0.60;;;;;;;25.37;94.96;100051.59;5033103;28;20049;-58
2023/08/18 03:54:51;;;;;;;1.33;0.80;;;;;;;25.35;95.85;100058.03;5033180;28;20464;-60
2023/08/18 03:57:21;;;;;;;3.77;1.10;;;;;;;25.36;95.93;100044.53;5023875;28;20041;-60
2023/08/18 03:59:55;;;;;;;2.00;0.90;;;;;;;25.16;94.93;100015.84;5010751;28;20056;-59
2023/08/18 04:02:26;;;;;;;1.97;1.03;;;;;;;25.31;93.53;100040.53;4994725;28;20044;-60
2023/08/18 04:04:58;;;;;;;4.93;1.10;;;;;;;25.43;92.58;100054.72;4994693;28;20071;-59
2023/08/18 04:07:30;;;;;;;4.17;1.00;;;;;;;25.51;92.15;100047.78;5009737;28;20041;-58
2023/08/18 04:10:03;;;;;;;2.20;1.00;;;;;;;25.52;91.88;100043.28;5014573;28;20064;-58
2023/08/18 04:12:37;;;;;;;2.90;1.00;;;;;;;25.65;91.99;100060.00;5027098;28;20052;-58
2023/08/18 04:15:14;;;;;;;3.03;1.00;;;;;;;25.70;91.08;100052.44;5020619;28;20056;-59
2023/08/18 04:17:44;;;;;;;6.53;1.50;;;;;;;25.75;90.99;100050.25;5041012;28;20049;-59
2023/08/18 04:20:15;;;;;;;10.30;1.87;;;;;;;25.81;91.40;100057.78;5020541;28;20049;-60
2023/08/18 04:22:45;;;;;;;7.00;1.70;;;;;;;25.87;90.61;100052.91;5032234;28;20033;-59
2023/08/18 04:25:18;;;;;;;2.87;1.30;;;;;;;25.90;89.29;100060.69;5021652;28;20513;-58
2023/08/18 04:27:48;;;;;;;4.50;1.90;;;;;;;25.92;88.28;100056.06;5016791;28;20053;-59
2023/08/18 04:30:19;;;;;;;3.97;2.00;;;;;;;25.92;88.77;100064.94;5022168;28;20041;-58
2023/08/18 04:32:50;;;;;;;3.53;1.70;;;;;;;25.93;88.99;100063.09;5031645;28;20060;-58
2023/08/18 04:35:20;;;;;;;7.73;2.00;;;;;;;25.97;88.92;100064.53;5020142;28;20048;-59
2023/08/18 04:37:51;;;;;;;5.43;2.00;;;;;;;25.99;88.83;100057.25;5031920;28;20679;-59
2023/08/18 04:40:23;;;;;;;5.03;2.13;;;;;;;26.02;89.91;100063.19;5020677;28;20087;-59
2023/08/18 04:42:53;;;;;;;6.00;2.70;;;;;;;26.08;89.95;100061.81;5027695;28;20061;-58
2023/08/18 04:45:24;;;;;;;4.67;2.70;;;;;;;26.18;89.24;100062.72;5032556;28;20367;-59
2023/08/18 04:47:55;;;;;;;4.97;3.03;;;;;;;26.23;87.64;100065.88;5022840;28;20049;-58
2023/08/18 04:50:28;;;;;;;4.53;2.87;;;;;;;26.28;87.22;100067.28;5026964;28;20050;-59
2023/08/18 04:52:58;;;;;;;3.60;2.97;;;;;;;26.33;87.80;100065.06;5013403;28;20038;-59
2023/08/18 04:55:31;;;;;;;6.57;3.20;;;;;;;26.35;87.91;100069.31;5034141;28;20132;-57
2023/08/18 04:58:01;;;;;;;6.50;3.53;;;;;;;26.33;86.27;100065.06;5022765;28;20133;-59
2023/08/18 05:00:32;;;;;;;5.03;3.10;;;;;;;26.19;84.94;100069.78;5031566;28;20033;-58
2023/08/18 05:03:03;;;;;;;5.03;3.20;;;;;;;26.12;85.26;100073.97;5019770;28;20033;-58
2023/08/18 05:05:35;;;;;;;7.13;3.10;;;;;;;26.11;86.22;100074.94;5032628;28;20421;-58
2023/08/18 05:08:06;;;;;;;6.60;3.60;;;;;;;26.11;85.94;100077.63;5022369;28;20138;-58
2023/08/18 05:10:38;;;;;;;8.60;4.03;;;;;;;26.14;86.16;100080.03;5012617;28;20049;-59
2023/08/18 05:13:09;;;;;;;7.13;3.93;;;;;;;26.13;87.45;100070.28;5002658;28;20409;-57
2023/08/18 05:15:39;;;;;;;5.23;3.77;;;;;;;26.11;87.10;100064.25;5011772;28;20559;-59
2023/08/18 05:18:10;;;;;;;6.00;3.37;;;;;;;26.17;86.35;100077.09;5010342;28;20084;-58
2023/08/18 05:20:40;;;;;;;7.47;4.53;;;;;;;26.18;83.95;100078.78;5012833;28;20045;-58
2023/08/18 05:23:10;;;;;;;8.80;4.30;;;;;;;26.08;82.66;100066.31;5000045;28;20060;-58
2023/08/18 05:25:43;;;;;;;8.40;4.20;;;;;;;26.16;81.16;100069.19;5012486;28;20459;-58
2023/08/18 05:28:14;;;;;;;8.73;4.63;;;;;;;26.08;78.45;100061.81;4999909;28;20037;-58
2023/08/18 05:30:47;;;;;;;7.63;4.37;;;;;;;26.33;79.79;100081.16;5028425;28;20132;-58
2023/08/18 05:33:18;;;;;;;7.70;4.43;;;;;;;26.36;77.40;100078.19;5017319;28;20052;-56
2023/08/18 05:35:48;;;;;;;8.27;4.63;;;;;;;26.37;78.09;100078.06;5013684;28;20514;-59
2023/08/18 05:38:19;;;;;;;6.17;4.13;;;;;;;26.50;77.28;100096.63;5028260;28;20052;-60
2023/08/18 05:40:52;;;;;;;7.23;4.60;;;;;;;26.49;76.99;100080.69;5031615;28;20143;-59
2023/08/18 05:43:23;;;;;;;9.40;4.87;;;;;;;26.50;77.77;100077.03;5020200;28;20363;-57
2023/08/18 05:45:53;;;;;;;7.13;4.30;;;;;;;26.51;76.17;100094.78;5026837;28;20045;-57
2023/08/18 05:48:24;;;;;;;7.33;4.70;;;;;;;26.33;75.74;100097.22;5029836;28;20098;-59
2023/08/18 05:50:54;;;;;;;6.30;4.50;;;;;;;26.19;75.43;100093.03;5021901;28;20065;-58
2023/08/18 05:53:25;;;;;;;9.73;4.90;;;;;;;26.09;75.10;100106.34;5041946;28;20036;-59
2023/08/18 05:55:57;;;;;;;8.77;4.53;;;;;;;26.00;74.44;100112.47;5021922;28;20053;-58
2023/08/18 05:58:28;;;;;;;8.23;4.70;;;;;;;25.83;75.46;100095.97;5030177;28;20365;-58
2023/08/18 06:00:58;;;;;;;10.83;5.10;;;;;;;25.76;76.17;100072.50;5020897;28;20055;-59
2023/08/18 06:03:30;;;;;;;6.57;5.13;;;;;;;26.08;76.73;100107.31;5041498;28;20124;-59
2023/08/18 06:06:01;;;;;;;5.83;4.70;;;;;;;26.17;76.39;100114.59;5020839;28;20136;-59
2023/08/18 06:08:35;;;;;;;7.47;4.90;;;;;;;26.21;76.34;100115.19;5023514;28;20068;-58
2023/08/18 06:11:07;;;;;;;8.30;4.87;;;;;;;26.19;75.11;100123.34;4999148;28;20124;-58
2023/08/18 06:13:38;;;;;;;7.10;4.73;;;;;;;26.00;75.05;100129.38;5016457;28;20063;-58
2023/08/18 06:16:08;;;;;;;9.93;4.97;;;;;;;25.87;75.49;100127.88;5021038;28;20037;-58
2023/08/18 06:18:39;;;;;;;7.00;4.50;;;;;;;25.76;76.82;100140.28;5030093;28;20041;-59
2023/08/18 06:21:09;;;;;;;13.53;5.37;;;;;;;25.75;77.90;100135.88;5017368;28;20041;-58
2023/08/18 06:23:40;;;;;;;7.77;5.40;;;;;;;25.73;78.59;100148.53;5039431;28;20055;-59
2023/08/18 06:26:12;;;;;;;9.13;4.90;;;;;;;25.68;77.82;100150.72;5017776;28;20127;-58
2023/08/18 06:28:42;;;;;;;9.60;5.13;;;;;;;25.74;78.80;100154.75;5032964;28;20059;-58
2023/08/18 06:31:13;;;;;;;11.40;5.47;;;;;;;25.75;79.01;100159.97;5021121;28;20053;-58
2023/08/18 06:33:44;;;;;;;13.83;5.87;;;;;;;25.88;79.15;100172.38;5028273;28;20076;-58
2023/08/18 06:36:14;;;;;;;8.17;5.50;;;;;;;25.96;78.78;100168.09;5019335;28;20041;-58
2023/08/18 06:38:45;;;;;;;8.23;5.30;;;;;;;25.92;77.14;100180.03;5037525;28;20040;-59
2023/08/18 06:41:17;;;;;;;6.33;4.60;;;;;;;25.75;73.58;100172.50;5019067;28;20170;-59
2023/08/18 06:43:47;;;;;;;8.00;4.50;;;;;;;25.51;73.74;100164.63;5028704;28;20106;-58
2023/08/18 06:46:18;;;;;;;8.33;4.27;;;;;;;25.38;72.50;100181.66;5020297;28;20041;-59
2023/08/18 06:48:48;;;;;;;11.17;4.77;;;;;;;25.17;71.35;100178.03;5030181;28;20056;-59
2023/08/18 06:51:19;;;;;;;7.47;4.37;;;;;;;24.96;73.28;100173.34;5020114;28;20067;-58
2023/08/18 06:53:50;;;;;;;7.67;4.50;;;;;;;24.98;72.69;100179.41;5040273;28;20491;-59
2023/08/18 06:56:22;;;;;;;6.03;4.03;;;;;;;24.95;74.04;100170.78;5019267;28;20069;-58
2023/08/18 06:58:53;;;;;;;7.40;4.60;;;;;;;25.01;72.85;100189.03;5026142;28;20440;-58
2023/08/18 07:01:26;;;;;;;8.20;4.00;;;;;;;24.96;72.57;100191.19;5029534;28;20124;-58
2023/08/18 07:03:57;;;;;;;6.03;4.10;;;;;;;24.93;73.87;100200.31;5018588;28;20061;-58
2023/08/18 07:06:28;;;;;;;6.23;4.17;;;;;;;25.09;75.79;100191.13;5031238;28;20037;-59
2023/08/18 07:08:59;;;;;;;7.40;4.37;;;;;;;25.20;74.71;100193.81;5031558;28;20648;-57
2023/08/18 07:11:31;;;;;;;7.40;4.50;;;;;;;25.23;75.17;100193.56;5016172;28;20087;-59
2023/08/18 07:14:03;;;;;;;8.33;4.37;;;;;;;25.35;77.91;100203.28;5020786;28;20056;-58
2023/08/18 07:16:33;;;;;;;9.37;4.87;;;;;;;25.44;79.14;100207.09;5034377;28;20051;-58
2023/08/18 07:19:04;;;;;;;10.93;4.67;;;;;;;25.44;79.01;100211.59;5033242;28;20535;-59
2023/08/18 07:21:35;;;;;;;6.33;4.70;;;;;;;25.34;78.63;100209.63;5053500;28;20040;-58
2023/08/18 07:24:06;;;;;;;12.80;4.60;;;;;;;25.23;78.95;100209.63;5054493;28;20048;-58
2023/08/18 07:26:38;;;;;;;8.60;4.17;;;;;;;25.06;79.13;100191.34;5053759;28;20041;-58
2023/08/18 07:29:09;;;;;;;8.40;4.43;;;;;;;24.96;80.38;100193.88;5043487;28;20114;-58
2023/08/18 07:31:39;;;;;;;6.27;4.17;;;;;;;24.89;81.05;100204.19;5033953;28;20127;-58
2023/08/18 07:34:13;;;;;;;11.47;4.23;;;;;;;24.86;83.11;100201.78;5011920;28;20453;-58
2023/08/18 07:36:43;;;;;;;7.83;4.67;;;;;;;24.90;83.45;100205.91;5013985;28;20056;-58
2023/08/18 07:39:14;;;;;;;7.30;4.63;;;;;;;25.04;84.47;100198.66;5019462;28;20120;-58
2023/08/18 07:41:46;;;;;;;7.87;5.30;;;;;;;25.01;83.79;100188.16;5021842;28;20079;-58
2023/08/18 07:44:17;;;;;;;9.83;7.07;;;;;;;25.08;83.71;100190.25;5002392;28;20128;-58
2023/08/18 07:46:47;;;;;;;18.97;17.17;;;;;;;25.23;81.63;100193.56;5013801;28;20075;-58
2023/08/18 07:49:18;;;;;;;9.23;5.60;;;;;;;25.06;81.52;100164.59;5022830;28;20041;-58
2023/08/18 07:51:49;;;;;;;7.47;4.60;;;;;;;25.30;81.65;100194.78;5053011;28;20052;-58
2023/08/18 07:54:19;;;;;;;8.10;5.60;;;;;;;25.42;82.47;100205.50;5053048;28;20136;-59
2023/08/18 07:56:52;;;;;;;9.27;4.73;;;;;;;25.49;81.68;100209.41;5032112;28;20106;-58
2023/08/18 07:59:23;;;;;;;6.80;4.53;;;;;;;25.48;81.29;100196.97;5022795;28;20087;-59
2023/08/18 08:01:54;;;;;;;8.47;4.57;;;;;;;25.51;79.82;100202.06;5053226;28;20093;-58
2023/08/18 08:04:25;;;;;;;6.27;4.17;;;;;;;25.53;79.86;100200.97;5050883;28;20084;-57
2023/08/18 08:06:56;;;;;;;5.13;3.97;;;;;;;25.50;79.39;100195.03;5052141;28;20041;-58
2023/08/18 08:09:27;;;;;;;6.30;4.00;;;;;;;25.12;80.20;100140.06;5040701;28;20140;-59
2023/08/18 08:11:59;;;;;;;8.10;4.40;;;;;;;25.53;79.94;100210.84;5022486;28;20047;-58
2023/08/18 08:14:29;;;;;;;10.00;4.13;;;;;;;25.52;79.07;100209.16;5042790;28;20189;-59
2023/08/18 08:17:04;;;;;;;7.20;4.17;;;;;;;25.42;79.04;100208.19;5051822;28;20056;-59
2023/08/18 08:19:38;;;;;;;9.00;4.22;;;;;;;25.35;80.09;100214.00;5052214;28;20041;-59
2023/08/18 08:22:10;;;;;;;8.13;4.73;;;;;;;25.28;80.78;100212.78;5051870;28;20045;-59
2023/08/18 08:24:40;;;;;;;7.30;4.17;;;;;;;25.22;80.23;100215.94;5052629;28;20043;-58
2023/08/18 08:27:15;;;;;;;6.77;4.10;;;;;;;25.10;80.30;100219.53;5053169;28;20098;-58
2023/08/18 08:29:46;;;;;;;7.40;4.37;;;;;;;24.94;80.55;100204.69;5049584;28;20037;-58
2023/08/18 08:32:17;;;;;;;7.87;4.57;;;;;;;24.94;81.43;100215.38;5013861;28;20045;-58
2023/08/18 08:34:50;;;;;;;6.30;4.20;;;;;;;24.86;81.97;100212.47;5031020;28;20045;-58
2023/08/18 08:37:21;;;;;;;8.33;4.50;;;;;;;24.78;81.93;100220.19;4997025;28;20041;-58
2023/08/18 08:39:51;;;;;;;9.73;6.80;;;;;;;24.74;81.95;100219.59;5011890;28;20536;-58
2023/08/18 08:42:24;;;;;;;9.50;6.27;;;;;;;24.73;82.01;100222.38;5010765;28;20076;-58
2023/08/18 08:44:55;;;;;;;8.07;5.37;;;;;;;24.75;82.36;100220.44;5025189;28;20474;-59
2023/08/18 08:47:26;;;;;;;10.90;7.17;;;;;;;24.72;82.25;100231.38;5042433;28;20037;-58
2023/08/18 08:50:01;;;;;;;9.33;6.07;;;;;;;24.74;82.16;100229.44;5021509;28;20100;-58
2023/08/18 08:52:38;;;;;;;18.97;10.43;;;;;;;24.74;82.57;100230.28;5032822;28;20044;-59
2023/08/18 08:55:15;;;;;;;30.90;17.87;;;;;;;24.70;82.57;100223.47;5023544;28;20443;-58
2023/08/18 08:57:48;;;;;;;16.10;9.53;;;;;;;24.56;83.36;100220.13;5054201;28;20414;-59
2023/08/18 09:00:22;;;;;;;16.07;7.80;;;;;;;24.46;84.66;100220.84;5054288;28;20056;-58
2023/08/18 09:03:01;;;;;;;9.90;6.17;;;;;;;24.36;85.85;100225.09;5033063;28;20464;-58
2023/08/18 09:05:34;;;;;;;8.97;5.73;;;;;;;24.22;86.07;100233.31;5035579;28;20070;-58
2023/08/18 09:08:08;;;;;;;11.03;4.20;;;;;;;24.10;87.36;100227.91;5026284;28;20114;-59
2023/08/18 09:10:40;;;;;;;8.23;4.73;;;;;;;23.85;88.53;100215.50;5033520;28;20041;-58
2023/08/18 09:13:51;;;;;;;9.83;4.53;;;;;;;23.73;89.89;100231.53;5033758;28;20053;-59
2023/08/18 09:16:30;;;;;;;9.40;4.63;;;;;;;23.55;92.14;100234.53;4986198;28;20127;-59
2023/08/18 09:19:12;;;;;;;9.07;5.07;;;;;;;23.40;93.12;100235.59;5020904;28;20045;-59
2023/08/18 09:21:59;;;;;;;8.00;4.30;;;;;;;23.11;94.50;100243.81;5036211;28;20048;-59
2023/08/18 09:24:31;;;;;;;9.00;5.60;;;;;;;22.89;96.17;100246.22;5031088;28;20041;-58
2023/08/18 09:27:09;;;;;;;11.77;4.47;;;;;;;22.65;97.29;100238.09;5022894;28;20110;-57
2023/08/18 09:29:43;;;;;;;6.88;4.68;;;;;;;22.46;98.97;100243.75;5044119;28;20049;-59
2023/08/18 09:32:17;;;;;;;29.33;9.50;;;;;;;22.31;100.00;100256.28;5023381;28;20478;-58
2023/08/18 09:34:48;;;;;;;35.70;26.70;;;;;;;22.11;100.00;100254.88;5035724;28;20140;-59
2023/08/18 09:37:32;;;;;;;24.00;21.17;;;;;;;21.92;100.00;100250.75;5024735;28;20095;-59
2023/08/18 09:40:05;;;;;;;45.00;15.77;;;;;;;21.76;100.00;100244.69;5045483;28;20056;-58
2023/08/18 09:42:44;;;;;;;42.07;15.10;;;;;;;21.66;100.00;100259.50;5032984;28;20052;-59
2023/08/18 09:45:18;;;;;;;28.90;15.93;;;;;;;21.57;100.00;100260.94;5025009;28;20067;-59
2023/08/18 09:47:55;;;;;;;28.27;15.87;;;;;;;21.50;100.00;100271.09;5033334;28;20052;-59
2023/08/18 09:50:27;;;;;;;25.33;14.13;;;;;;;21.43;100.00;100264.44;4994459;28;20063;-57
2023/08/18 09:53:00;;;;;;;11.57;5.57;;;;;;;21.26;100.00;100267.25;4993406;28;20084;-57
2023/08/18 09:55:35;;;;;;;9.60;5.57;;;;;;;20.92;100.00;100242.72;5008641;28;20061;-57
2023/08/18 09:58:14;;;;;;;9.57;5.20;;;;;;;20.79;100.00;100255.00;5012713;28;20617;-58
2023/08/18 10:00:59;;;;;;;8.77;5.32;;;;;;;20.75;100.00;100277.41;5022714;28;20479;-58
2023/08/18 10:03:34;;;;;;;10.37;5.13;;;;;;;20.48;100.00;100254.97;5012541;28;20041;-58
2023/08/18 10:06:07;;;;;;;9.07;5.63;;;;;;;20.49;100.00;100277.06;5012689;28;20045;-57
2023/08/18 10:08:42;;;;;;;7.77;4.37;;;;;;;20.31;100.00;100265.69;5021443;28;20059;-59
2023/08/18 10:11:14;;;;;;;11.87;4.97;;;;;;;20.33;100.00;100281.53;5013307;28;20049;-58
2023/08/18 10:13:47;;;;;;;9.83;5.10;;;;;;;20.22;100.00;100285.66;5023057;28;20319;-58
2023/08/18 10:16:21;;;;;;;12.87;5.90;;;;;;;20.10;100.00;100281.03;5012606;28;20319;-57
2023/08/18 10:18:57;;;;;;;10.33;5.57;;;;;;;20.00;100.00;100293.09;5006174;28;20439;-58
2023/08/18 10:21:29;;;;;;;8.77;5.37;;;;;;;19.54;100.00;100218.69;4992456;28;20346;-57
2023/08/18 10:24:27;;;;;;;9.43;5.77;;;;;;;19.91;100.00;100288.28;5010288;28;20630;-58
2023/08/18 10:30:33;;;;;;;14.23;5.70;;;;;;;19.86;100.00;100299.13;5007589;28;20745;-58
2023/08/18 10:37:05;;;;;;;8.00;6.17;;;;;;;19.67;100.00;100309.91;4891273;28;20472;-58
2023/08/18 10:39:40;;;;;;;14.47;6.03;;;;;;;19.56;100.00;100304.25;4903139;29;20618;-58
2023/08/18 10:42:15;;;;;;;11.90;7.63;;;;;;;19.30;100.00;100274.72;4893701;28;20291;-58
2023/08/18 10:45:00;;;;;;;11.30;6.27;;;;;;;19.42;100.00;100301.47;4903221;28;20762;-58
2023/08/18 10:47:32;;;;;;;8.53;5.97;;;;;;;19.54;100.00;100335.28;4953962;28;20276;-58
2023/08/18 10:50:07;;;;;;;13.40;5.17;;;;;;;19.48;100.00;100325.03;4970282;28;20281;-58
2023/08/18 10:52:41;;;;;;;11.60;7.17;;;;;;;19.44;100.00;100329.59;4980057;28;20289;-57
2023/08/18 10:55:13;;;;;;;11.90;5.77;;;;;;;19.37;100.00;100333.53;4968095;28;21245;-58
2023/08/18 10:57:50;;;;;;;13.30;5.77;;;;;;;19.18;100.00;100317.72;4979402;28;20927;-58
2023/08/18 11:00:22;;;;;;;10.83;5.30;;;;;;;19.23;100.00;100338.69;4961621;28;20368;-57
2023/08/18 11:02:55;;;;;;;10.87;5.07;;;;;;;19.21;100.00;100336.09;4975355;28;20295;-58
2023/08/18 11:05:31;;;;;;;9.63;4.73;;;;;;;19.08;100.00;100321.78;4979027;28;20376;-59
2023/08/18 11:08:07;;;;;;;10.67;5.03;;;;;;;19.10;100.00;100327.84;4969479;28;20284;-58
2023/08/18 11:10:40;;;;;;;12.40;5.40;;;;;;;19.16;100.00;100340.78;4979874;28;20364;-57
2023/08/18 11:13:28;;;;;;;11.83;5.33;;;;;;;19.04;100.00;100330.81;4996682;28;20283;-58
2023/08/18 11:16:23;;;;;;;14.13;5.07;;;;;;;19.08;100.00;100349.09;5011942;28;20740;-58
2023/08/18 11:18:56;;;;;;;12.47;5.20;;;;;;;19.08;100.00;100349.09;5014864;28;20618;-58
2023/08/18 11:21:28;;;;;;;11.57;5.47;;;;;;;19.05;100.00;100353.72;5021630;28;20379;-59
2023/08/18 11:24:04;;;;;;;10.20;5.30;;;;;;;19.00;100.00;100346.00;5011882;28;20303;-58
2023/08/18 11:26:43;;;;;;;9.43;5.47;;;;;;;18.99;100.00;100348.72;5020913;28;20318;-57
2023/08/18 11:29:15;;;;;;;16.50;8.30;;;;;;;18.91;100.00;100347.28;5011792;28;20292;-58
2023/08/18 11:31:48;;;;;;;12.43;7.70;;;;;;;18.47;100.00;100280.63;5022231;28;20275;-58
2023/08/18 11:34:20;;;;;;;14.53;7.70;;;;;;;18.90;100.00;100353.53;5011001;28;20750;-58
2023/08/18 11:37:03;;;;;;;12.13;7.50;;;;;;;18.87;100.00;100360.75;5021438;28;20646;-58
2023/08/18 11:39:39;;;;;;;17.17;7.63;;;;;;;18.81;100.00;100358.44;5020800;28;20734;-58
2023/08/18 11:42:10;;;;;;;14.40;6.20;;;;;;;18.76;100.00;100363.94;5000850;28;20371;-58
2023/08/18 11:44:42;;;;;;;7.43;6.10;;;;;;;18.73;100.00;100361.41;5015813;28;20283;-57
2023/08/18 11:47:14;;;;;;;11.23;6.03;;;;;;;18.69;100.00;100367.78;5009279;28;20358;-57
2023/08/18 11:49:46;;;;;;;9.63;5.70;;;;;;;18.64;100.00;100362.69;5001706;28;20327;-56
2023/08/18 11:52:18;;;;;;;14.97;6.13;;;;;;;18.64;100.00;100369.78;4995348;28;20291;-59
2023/08/18 11:54:59;;;;;;;8.90;5.37;;;;;;;18.62;100.00;100376.94;5021158;28;20280;-56